sensor_id;sensor_type;location;lat;lon;timestamp;temperature;humidity
19037;DHT22;9651;49.138;8.900;2023-05-07T00:00:21;15.10;99.90
19037;DHT22;9651;49.138;8.900;2023-05-07T00:04:23;15.10;99.90
19037;DHT22;9651;49.138;8.900;2023-05-07T00:08:26;15.10;99.90
19037;DHT22;9651;49.138;8.900;2023-05-07T00:12:28;15.10;99.90
19037;DHT22;9651;49.138;8.900;2023-05-07T00:16:32;15.10;99.90
19037;DHT22;9651;49.138;8.900;2023-05-07T00:20:33;15.10;99.90
19037;DHT22;9651;49.138;8.900;2023-05-07T00:24:37;15.10;99.90
19037;DHT22;9651;49.138;8.900;2023-05-07T00:28:39;15.10;99.90
19037;DHT22;9651;49.138;8.900;2023-05-07T00:32:41;15.10;99.90
19037;DHT22;9651;49.138;8.900;2023-05-07T00:36:45;15.10;99.90
19037;DHT22;9651;49.138;8.900;2023-05-07T00:40:49;15.10;99.90
19037;DHT22;9651;49.138;8.900;2023-05-07T00:44:52;15.10;99.90
19037;DHT22;9651;49.138;8.900;2023-05-07T00:48:53;15.10;99.90
19037;DHT22;9651;49.138;8.900;2023-05-07T00:52:56;15.10;99.90
19037;DHT22;9651;49.138;8.900;2023-05-07T00:56:59;15.10;99.90
19037;DHT22;9651;49.138;8.900;2023-05-07T01:01:02;15.10;99.90
19037;DHT22;9651;49.138;8.900;2023-05-07T01:05:05;15.10;99.90
19037;DHT22;9651;49.138;8.900;2023-05-07T01:09:09;15.10;99.90
19037;DHT22;9651;49.138;8.900;2023-05-07T01:13:14;15.10;99.90
19037;DHT22;9651;49.138;8.900;2023-05-07T01:17:16;15.00;99.90
19037;DHT22;9651;49.138;8.900;2023-05-07T01:21:24;15.00;99.90
19037;DHT22;9651;49.138;8.900;2023-05-07T01:25:31;15.00;99.90
19037;DHT22;9651;49.138;8.900;2023-05-07T01:29:35;15.00;99.90
19037;DHT22;9651;49.138;8.900;2023-05-07T01:33:38;15.00;99.90
19037;DHT22;9651;49.138;8.900;2023-05-07T01:37:42;15.00;99.90
19037;DHT22;9651;49.138;8.900;2023-05-07T01:41:46;15.00;99.90
19037;DHT22;9651;49.138;8.900;2023-05-07T01:45:48;15.10;99.90
19037;DHT22;9651;49.138;8.900;2023-05-07T01:49:50;15.00;99.90
19037;DHT22;9651;49.138;8.900;2023-05-07T01:53:52;15.00;99.90
19037;DHT22;9651;49.138;8.900;2023-05-07T01:57:56;15.00;99.90
19037;DHT22;9651;49.138;8.900;2023-05-07T02:01:58;15.00;99.90
19037;DHT22;9651;49.138;8.900;2023-05-07T02:06:01;14.90;99.90
19037;DHT22;9651;49.138;8.900;2023-05-07T02:10:08;14.90;99.90
19037;DHT22;9651;49.138;8.900;2023-05-07T02:14:12;14.90;99.90
19037;DHT22;9651;49.138;8.900;2023-05-07T02:18:13;14.90;99.90
19037;DHT22;9651;49.138;8.900;2023-05-07T02:22:15;14.90;99.90
19037;DHT22;9651;49.138;8.900;2023-05-07T02:26:18;14.90;99.90
19037;DHT22;9651;49.138;8.900;2023-05-07T02:30:21;14.90;99.90
19037;DHT22;9651;49.138;8.900;2023-05-07T02:34:27;14.90;99.90
19037;DHT22;9651;49.138;8.900;2023-05-07T02:38:29;14.80;99.90
19037;DHT22;9651;49.138;8.900;2023-05-07T02:42:31;14.80;99.90
19037;DHT22;9651;49.138;8.900;2023-05-07T02:46:34;14.90;99.90
19037;DHT22;9651;49.138;8.900;2023-05-07T02:50:41;14.80;99.90
19037;DHT22;9651;49.138;8.900;2023-05-07T02:54:47;14.80;99.90
19037;DHT22;9651;49.138;8.900;2023-05-07T02:58:49;14.80;99.90
19037;DHT22;9651;49.138;8.900;2023-05-07T03:02:53;14.80;99.90
19037;DHT22;9651;49.138;8.900;2023-05-07T03:06:56;14.70;99.90
19037;DHT22;9651;49.138;8.900;2023-05-07T03:10:58;14.70;99.90
19037;DHT22;9651;49.138;8.900;2023-05-07T03:15:00;14.70;99.90
19037;DHT22;9651;49.138;8.900;2023-05-07T03:19:04;14.70;99.90
19037;DHT22;9651;49.138;8.900;2023-05-07T03:23:06;14.60;99.90
19037;DHT22;9651;49.138;8.900;2023-05-07T03:27:08;14.60;99.90
19037;DHT22;9651;49.138;8.900;2023-05-07T03:31:11;14.50;99.90
19037;DHT22;9651;49.138;8.900;2023-05-07T03:35:14;14.40;99.90
19037;DHT22;9651;49.138;8.900;2023-05-07T03:39:16;14.30;99.90
19037;DHT22;9651;49.138;8.900;2023-05-07T03:43:19;14.30;99.90
19037;DHT22;9651;49.138;8.900;2023-05-07T03:47:26;14.30;99.90
19037;DHT22;9651;49.138;8.900;2023-05-07T03:51:30;14.20;99.90
19037;DHT22;9651;49.138;8.900;2023-05-07T03:55:32;14.20;99.90
19037;DHT22;9651;49.138;8.900;2023-05-07T03:59:34;14.20;99.90
19037;DHT22;9651;49.138;8.900;2023-05-07T04:03:36;14.10;99.90
19037;DHT22;9651;49.138;8.900;2023-05-07T04:07:40;14.00;99.90
19037;DHT22;9651;49.138;8.900;2023-05-07T04:11:43;14.00;99.90
19037;DHT22;9651;49.138;8.900;2023-05-07T04:15:46;14.00;99.90
19037;DHT22;9651;49.138;8.900;2023-05-07T04:19:51;14.00;99.90
19037;DHT22;9651;49.138;8.900;2023-05-07T04:23:55;14.00;99.90
19037;DHT22;9651;49.138;8.900;2023-05-07T04:27:58;14.00;99.90
19037;DHT22;9651;49.138;8.900;2023-05-07T04:32:01;13.90;99.90
19037;DHT22;9651;49.138;8.900;2023-05-07T04:36:04;13.90;99.90
19037;DHT22;9651;49.138;8.900;2023-05-07T04:40:13;13.80;99.90
19037;DHT22;9651;49.138;8.900;2023-05-07T04:44:17;13.90;99.90
19037;DHT22;9651;49.138;8.900;2023-05-07T04:48:20;14.00;99.90
19037;DHT22;9651;49.138;8.900;2023-05-07T04:52:23;14.10;99.90
19037;DHT22;9651;49.138;8.900;2023-05-07T04:56:29;14.30;99.90
19037;DHT22;9651;49.138;8.900;2023-05-07T05:00:32;14.40;99.90
19037;DHT22;9651;49.138;8.900;2023-05-07T05:04:35;14.60;99.90
19037;DHT22;9651;49.138;8.900;2023-05-07T05:08:37;14.70;99.90
19037;DHT22;9651;49.138;8.900;2023-05-07T05:12:41;14.80;99.90
19037;DHT22;9651;49.138;8.900;2023-05-07T05:16:42;14.90;99.90
19037;DHT22;9651;49.138;8.900;2023-05-07T05:20:45;14.90;99.90
19037;DHT22;9651;49.138;8.900;2023-05-07T05:24:47;14.80;99.90
19037;DHT22;9651;49.138;8.900;2023-05-07T05:28:50;14.90;99.90
19037;DHT22;9651;49.138;8.900;2023-05-07T05:32:55;14.90;99.90
19037;DHT22;9651;49.138;8.900;2023-05-07T05:36:58;14.80;99.90
19037;DHT22;9651;49.138;8.900;2023-05-07T05:41:00;14.90;99.90
19037;DHT22;9651;49.138;8.900;2023-05-07T05:45:06;14.90;99.90
19037;DHT22;9651;49.138;8.900;2023-05-07T05:49:09;14.90;99.90
19037;DHT22;9651;49.138;8.900;2023-05-07T05:53:12;15.10;99.90
19037;DHT22;9651;49.138;8.900;2023-05-07T05:57:14;15.20;99.90
19037;DHT22;9651;49.138;8.900;2023-05-07T06:01:18;15.30;99.90
19037;DHT22;9651;49.138;8.900;2023-05-07T06:05:21;15.60;99.90
19037;DHT22;9651;49.138;8.900;2023-05-07T06:09:26;15.90;99.90
19037;DHT22;9651;49.138;8.900;2023-05-07T06:13:29;16.10;99.90
19037;DHT22;9651;49.138;8.900;2023-05-07T06:17:32;16.30;99.90
19037;DHT22;9651;49.138;8.900;2023-05-07T06:21:34;16.60;99.90
19037;DHT22;9651;49.138;8.900;2023-05-07T06:25:36;17.00;99.90
19037;DHT22;9651;49.138;8.900;2023-05-07T06:29:38;17.40;99.90
19037;DHT22;9651;49.138;8.900;2023-05-07T06:33:48;17.50;99.90
19037;DHT22;9651;49.138;8.900;2023-05-07T06:37:51;17.30;99.90
19037;DHT22;9651;49.138;8.900;2023-05-07T06:41:57;17.50;99.90
19037;DHT22;9651;49.138;8.900;2023-05-07T06:46:05;17.40;99.90
19037;DHT22;9651;49.138;8.900;2023-05-07T06:50:10;17.70;99.90
19037;DHT22;9651;49.138;8.900;2023-05-07T06:54:12;18.10;99.90
19037;DHT22;9651;49.138;8.900;2023-05-07T06:58:15;18.70;99.90
19037;DHT22;9651;49.138;8.900;2023-05-07T07:02:17;18.90;99.90
19037;DHT22;9651;49.138;8.900;2023-05-07T07:06:22;19.30;99.90
19037;DHT22;9651;49.138;8.900;2023-05-07T07:10:25;20.10;99.90
19037;DHT22;9651;49.138;8.900;2023-05-07T07:14:28;20.50;99.90
19037;DHT22;9651;49.138;8.900;2023-05-07T07:18:30;20.60;99.90
19037;DHT22;9651;49.138;8.900;2023-05-07T07:22:34;21.00;99.90
19037;DHT22;9651;49.138;8.900;2023-05-07T07:26:37;21.30;99.90
19037;DHT22;9651;49.138;8.900;2023-05-07T07:30:41;21.10;99.90
19037;DHT22;9651;49.138;8.900;2023-05-07T07:34:43;21.20;99.90
19037;DHT22;9651;49.138;8.900;2023-05-07T07:38:47;21.50;99.90
19037;DHT22;9651;49.138;8.900;2023-05-07T07:42:51;22.20;99.90
19037;DHT22;9651;49.138;8.900;2023-05-07T07:46:53;22.80;99.90
19037;DHT22;9651;49.138;8.900;2023-05-07T07:50:57;23.00;99.90
19037;DHT22;9651;49.138;8.900;2023-05-07T07:55:01;23.20;99.90
19037;DHT22;9651;49.138;8.900;2023-05-07T07:59:03;23.10;99.90
19037;DHT22;9651;49.138;8.900;2023-05-07T08:03:09;23.30;99.90
19037;DHT22;9651;49.138;8.900;2023-05-07T08:07:15;23.00;99.90
19037;DHT22;9651;49.138;8.900;2023-05-07T08:11:23;23.00;99.90
19037;DHT22;9651;49.138;8.900;2023-05-07T08:15:28;23.00;99.90
19037;DHT22;9651;49.138;8.900;2023-05-07T08:19:29;23.10;99.90
19037;DHT22;9651;49.138;8.900;2023-05-07T08:23:32;23.20;99.90
19037;DHT22;9651;49.138;8.900;2023-05-07T08:27:37;23.30;99.90
19037;DHT22;9651;49.138;8.900;2023-05-07T08:31:39;24.30;99.90
19037;DHT22;9651;49.138;8.900;2023-05-07T08:35:41;25.30;99.90
19037;DHT22;9651;49.138;8.900;2023-05-07T08:39:45;26.10;99.90
19037;DHT22;9651;49.138;8.900;2023-05-07T08:43:58;26.40;99.90
19037;DHT22;9651;49.138;8.900;2023-05-07T08:48:02;27.10;99.90
19037;DHT22;9651;49.138;8.900;2023-05-07T08:52:09;27.30;99.90
19037;DHT22;9651;49.138;8.900;2023-05-07T08:56:12;27.50;99.90
19037;DHT22;9651;49.138;8.900;2023-05-07T09:00:17;28.00;99.90
19037;DHT22;9651;49.138;8.900;2023-05-07T09:04:23;27.60;99.90
19037;DHT22;9651;49.138;8.900;2023-05-07T09:08:26;27.90;99.90
19037;DHT22;9651;49.138;8.900;2023-05-07T09:12:32;28.10;99.90
19037;DHT22;9651;49.138;8.900;2023-05-07T09:16:41;28.80;99.90
19037;DHT22;9651;49.138;8.900;2023-05-07T09:20:43;28.70;99.90
19037;DHT22;9651;49.138;8.900;2023-05-07T09:24:47;28.80;99.90
19037;DHT22;9651;49.138;8.900;2023-05-07T09:28:50;28.40;99.90
19037;DHT22;9651;49.138;8.900;2023-05-07T09:32:56;29.10;99.90
19037;DHT22;9651;49.138;8.900;2023-05-07T09:36:59;29.40;99.90
19037;DHT22;9651;49.138;8.900;2023-05-07T09:41:04;30.00;99.90
19037;DHT22;9651;49.138;8.900;2023-05-07T09:45:09;30.70;99.20
19037;DHT22;9651;49.138;8.900;2023-05-07T09:49:20;30.40;98.80
19037;DHT22;9651;49.138;8.900;2023-05-07T09:53:24;30.00;99.00
19037;DHT22;9651;49.138;8.900;2023-05-07T09:57:29;29.60;99.10
19037;DHT22;9651;49.138;8.900;2023-05-07T10:01:36;29.00;99.70
19037;DHT22;9651;49.138;8.900;2023-05-07T10:05:42;29.10;99.60
19037;DHT22;9651;49.138;8.900;2023-05-07T10:09:46;29.70;98.50
19037;DHT22;9651;49.138;8.900;2023-05-07T10:13:57;30.20;98.10
19037;DHT22;9651;49.138;8.900;2023-05-07T10:17:59;31.20;97.30
19037;DHT22;9651;49.138;8.900;2023-05-07T10:22:05;31.60;96.00
19037;DHT22;9651;49.138;8.900;2023-05-07T10:26:14;32.20;94.70
19037;DHT22;9651;49.138;8.900;2023-05-07T10:30:25;32.60;93.80
19037;DHT22;9651;49.138;8.900;2023-05-07T10:34:34;33.00;92.70
19037;DHT22;9651;49.138;8.900;2023-05-07T10:38:39;33.30;90.50
19037;DHT22;9651;49.138;8.900;2023-05-07T10:42:53;33.20;90.90
19037;DHT22;9651;49.138;8.900;2023-05-07T10:47:07;33.40;90.50
19037;DHT22;9651;49.138;8.900;2023-05-07T10:51:20;33.20;86.70
19037;DHT22;9651;49.138;8.900;2023-05-07T10:55:28;32.60;88.50
19037;DHT22;9651;49.138;8.900;2023-05-07T10:59:39;33.00;87.70
19037;DHT22;9651;49.138;8.900;2023-05-07T11:04:14;33.90;84.90
19037;DHT22;9651;49.138;8.900;2023-05-07T11:08:24;34.70;81.50
19037;DHT22;9651;49.138;8.900;2023-05-07T11:12:53;35.20;80.50
19037;DHT22;9651;49.138;8.900;2023-05-07T11:17:05;36.20;77.20
19037;DHT22;9651;49.138;8.900;2023-05-07T11:21:08;36.20;73.80
19037;DHT22;9651;49.138;8.900;2023-05-07T11:25:18;36.00;73.80
19037;DHT22;9651;49.138;8.900;2023-05-07T11:29:27;36.50;71.80
19037;DHT22;9651;49.138;8.900;2023-05-07T11:33:50;36.30;70.20
19037;DHT22;9651;49.138;8.900;2023-05-07T11:37:59;37.00;70.70
19037;DHT22;9651;49.138;8.900;2023-05-07T11:42:03;36.10;69.10
19037;DHT22;9651;49.138;8.900;2023-05-07T11:46:08;36.10;70.20
19037;DHT22;9651;49.138;8.900;2023-05-07T11:50:10;36.70;68.60
19037;DHT22;9651;49.138;8.900;2023-05-07T11:54:15;37.10;68.40
19037;DHT22;9651;49.138;8.900;2023-05-07T11:58:22;35.80;67.60
19037;DHT22;9651;49.138;8.900;2023-05-07T12:02:26;35.00;68.60
19037;DHT22;9651;49.138;8.900;2023-05-07T12:06:28;36.10;68.00
19037;DHT22;9651;49.138;8.900;2023-05-07T12:10:30;37.00;66.20
19037;DHT22;9651;49.138;8.900;2023-05-07T12:14:32;35.50;65.80
19037;DHT22;9651;49.138;8.900;2023-05-07T12:18:39;34.40;67.80
19037;DHT22;9651;49.138;8.900;2023-05-07T12:22:41;33.70;68.60
19037;DHT22;9651;49.138;8.900;2023-05-07T12:26:43;32.90;68.60
19037;DHT22;9651;49.138;8.900;2023-05-07T12:30:48;32.40;70.40
19037;DHT22;9651;49.138;8.900;2023-05-07T12:34:52;33.50;69.60
19037;DHT22;9651;49.138;8.900;2023-05-07T12:38:59;33.60;68.10
19037;DHT22;9651;49.138;8.900;2023-05-07T12:43:01;33.10;71.00
19037;DHT22;9651;49.138;8.900;2023-05-07T12:47:03;33.90;68.70
19037;DHT22;9651;49.138;8.900;2023-05-07T12:51:06;33.50;67.40
19037;DHT22;9651;49.138;8.900;2023-05-07T12:55:13;32.70;68.40
19037;DHT22;9651;49.138;8.900;2023-05-07T12:59:15;32.70;68.90
19037;DHT22;9651;49.138;8.900;2023-05-07T13:03:25;31.70;67.90
19037;DHT22;9651;49.138;8.900;2023-05-07T13:07:29;30.70;68.40
19037;DHT22;9651;49.138;8.900;2023-05-07T13:11:30;29.60;69.10
19037;DHT22;9651;49.138;8.900;2023-05-07T13:15:32;29.20;71.50
19037;DHT22;9651;49.138;8.900;2023-05-07T13:19:34;28.40;72.10
19037;DHT22;9651;49.138;8.900;2023-05-07T13:23:39;28.00;72.60
19037;DHT22;9651;49.138;8.900;2023-05-07T13:27:41;27.30;74.10
19037;DHT22;9651;49.138;8.900;2023-05-07T13:31:43;27.00;75.20
19037;DHT22;9651;49.138;8.900;2023-05-07T13:35:45;26.40;77.10
19037;DHT22;9651;49.138;8.900;2023-05-07T13:39:49;26.20;77.40
19037;DHT22;9651;49.138;8.900;2023-05-07T13:43:51;26.00;77.70
19037;DHT22;9651;49.138;8.900;2023-05-07T13:47:53;25.70;78.60
19037;DHT22;9651;49.138;8.900;2023-05-07T13:51:55;25.50;80.00
19037;DHT22;9651;49.138;8.900;2023-05-07T13:55:58;25.50;82.70
19037;DHT22;9651;49.138;8.900;2023-05-07T14:00:00;25.20;82.70
19037;DHT22;9651;49.138;8.900;2023-05-07T14:04:02;25.10;83.50
19037;DHT22;9651;49.138;8.900;2023-05-07T14:08:04;24.80;85.30
19037;DHT22;9651;49.138;8.900;2023-05-07T14:12:09;24.40;89.30
19037;DHT22;9651;49.138;8.900;2023-05-07T14:16:11;23.90;92.50
19037;DHT22;9651;49.138;8.900;2023-05-07T14:20:13;23.10;97.00
19037;DHT22;9651;49.138;8.900;2023-05-07T14:24:15;22.60;99.60
19037;DHT22;9651;49.138;8.900;2023-05-07T14:28:18;21.80;99.90
19037;DHT22;9651;49.138;8.900;2023-05-07T14:32:21;20.70;99.90
19037;DHT22;9651;49.138;8.900;2023-05-07T14:36:23;20.10;99.90
19037;DHT22;9651;49.138;8.900;2023-05-07T14:40:26;19.70;99.90
19037;DHT22;9651;49.138;8.900;2023-05-07T14:44:30;19.20;99.90
19037;DHT22;9651;49.138;8.900;2023-05-07T14:48:32;18.80;99.90
19037;DHT22;9651;49.138;8.900;2023-05-07T14:52:34;18.60;99.90
19037;DHT22;9651;49.138;8.900;2023-05-07T14:56:35;18.60;99.90
19037;DHT22;9651;49.138;8.900;2023-05-07T15:00:39;18.70;99.90
19037;DHT22;9651;49.138;8.900;2023-05-07T15:04:41;18.60;99.90
19037;DHT22;9651;49.138;8.900;2023-05-07T15:08:46;18.60;99.90
19037;DHT22;9651;49.138;8.900;2023-05-07T15:12:49;18.40;99.90
19037;DHT22;9651;49.138;8.900;2023-05-07T15:16:52;18.40;99.90
19037;DHT22;9651;49.138;8.900;2023-05-07T15:20:55;18.20;99.90
19037;DHT22;9651;49.138;8.900;2023-05-07T15:24:57;18.20;99.90
19037;DHT22;9651;49.138;8.900;2023-05-07T15:28:59;18.30;99.90
19037;DHT22;9651;49.138;8.900;2023-05-07T15:33:05;18.40;99.90
19037;DHT22;9651;49.138;8.900;2023-05-07T15:37:07;18.30;99.90
19037;DHT22;9651;49.138;8.900;2023-05-07T15:41:09;18.30;99.90
19037;DHT22;9651;49.138;8.900;2023-05-07T15:45:11;18.40;99.90
19037;DHT22;9651;49.138;8.900;2023-05-07T15:49:14;18.40;99.90
19037;DHT22;9651;49.138;8.900;2023-05-07T15:53:16;18.40;99.90
19037;DHT22;9651;49.138;8.900;2023-05-07T15:57:19;18.40;99.90
19037;DHT22;9651;49.138;8.900;2023-05-07T16:01:21;18.40;99.90
19037;DHT22;9651;49.138;8.900;2023-05-07T16:05:24;18.30;99.90
19037;DHT22;9651;49.138;8.900;2023-05-07T16:09:26;18.20;99.90
19037;DHT22;9651;49.138;8.900;2023-05-07T16:13:28;18.20;99.90
19037;DHT22;9651;49.138;8.900;2023-05-07T16:17:30;18.00;99.90
19037;DHT22;9651;49.138;8.900;2023-05-07T16:21:34;17.80;99.90
19037;DHT22;9651;49.138;8.900;2023-05-07T16:25:36;17.70;99.90
19037;DHT22;9651;49.138;8.900;2023-05-07T16:29:37;17.60;99.90
19037;DHT22;9651;49.138;8.900;2023-05-07T16:33:40;17.50;99.90
19037;DHT22;9651;49.138;8.900;2023-05-07T16:37:43;17.40;99.90
19037;DHT22;9651;49.138;8.900;2023-05-07T16:41:45;17.30;99.90
19037;DHT22;9651;49.138;8.900;2023-05-07T16:45:48;17.20;99.90
19037;DHT22;9651;49.138;8.900;2023-05-07T16:49:50;17.20;99.90
19037;DHT22;9651;49.138;8.900;2023-05-07T16:53:53;17.10;99.90
19037;DHT22;9651;49.138;8.900;2023-05-07T16:57:55;17.10;99.90
19037;DHT22;9651;49.138;8.900;2023-05-07T17:01:57;17.00;99.90
19037;DHT22;9651;49.138;8.900;2023-05-07T17:05:59;16.90;99.90
19037;DHT22;9651;49.138;8.900;2023-05-07T17:10:03;16.80;99.90
19037;DHT22;9651;49.138;8.900;2023-05-07T17:14:05;16.90;99.90
19037;DHT22;9651;49.138;8.900;2023-05-07T17:18:07;16.90;99.90
19037;DHT22;9651;49.138;8.900;2023-05-07T17:22:09;16.80;99.90
19037;DHT22;9651;49.138;8.900;2023-05-07T17:26:12;16.80;99.90
19037;DHT22;9651;49.138;8.900;2023-05-07T17:30:14;16.80;99.90
19037;DHT22;9651;49.138;8.900;2023-05-07T17:34:16;16.80;99.90
19037;DHT22;9651;49.138;8.900;2023-05-07T17:38:18;16.80;99.90
19037;DHT22;9651;49.138;8.900;2023-05-07T17:42:21;16.80;99.90
19037;DHT22;9651;49.138;8.900;2023-05-07T17:46:23;16.70;99.90
19037;DHT22;9651;49.138;8.900;2023-05-07T17:50:25;16.40;99.90
19037;DHT22;9651;49.138;8.900;2023-05-07T17:54:27;16.20;99.90
19037;DHT22;9651;49.138;8.900;2023-05-07T17:58:31;16.20;99.90
19037;DHT22;9651;49.138;8.900;2023-05-07T18:02:33;16.30;99.90
19037;DHT22;9651;49.138;8.900;2023-05-07T18:06:35;16.40;99.90
19037;DHT22;9651;49.138;8.900;2023-05-07T18:10:37;16.50;99.90
19037;DHT22;9651;49.138;8.900;2023-05-07T18:14:40;16.50;99.90
19037;DHT22;9651;49.138;8.900;2023-05-07T18:18:42;16.50;99.90
19037;DHT22;9651;49.138;8.900;2023-05-07T18:22:46;16.40;99.90
19037;DHT22;9651;49.138;8.900;2023-05-07T18:26:48;16.40;99.90
19037;DHT22;9651;49.138;8.900;2023-05-07T18:30:51;16.20;99.90
19037;DHT22;9651;49.138;8.900;2023-05-07T18:34:53;16.20;99.90
19037;DHT22;9651;49.138;8.900;2023-05-07T18:38:55;16.20;99.90
19037;DHT22;9651;49.138;8.900;2023-05-07T18:42:57;16.10;99.90
19037;DHT22;9651;49.138;8.900;2023-05-07T18:47:01;16.10;99.90
19037;DHT22;9651;49.138;8.900;2023-05-07T18:51:03;16.20;99.90
19037;DHT22;9651;49.138;8.900;2023-05-07T18:55:06;16.10;99.90
19037;DHT22;9651;49.138;8.900;2023-05-07T18:59:09;16.00;99.90
19037;DHT22;9651;49.138;8.900;2023-05-07T19:03:12;15.90;99.90
19037;DHT22;9651;49.138;8.900;2023-05-07T19:07:15;15.90;99.90
19037;DHT22;9651;49.138;8.900;2023-05-07T19:11:17;15.90;99.90
19037;DHT22;9651;49.138;8.900;2023-05-07T19:15:20;15.90;99.90
19037;DHT22;9651;49.138;8.900;2023-05-07T19:19:25;15.90;99.90
19037;DHT22;9651;49.138;8.900;2023-05-07T19:23:27;15.90;99.90
19037;DHT22;9651;49.138;8.900;2023-05-07T19:27:29;15.80;99.90
19037;DHT22;9651;49.138;8.900;2023-05-07T19:31:31;15.80;99.90
19037;DHT22;9651;49.138;8.900;2023-05-07T19:35:35;15.80;99.90
19037;DHT22;9651;49.138;8.900;2023-05-07T19:39:37;15.80;99.90
19037;DHT22;9651;49.138;8.900;2023-05-07T19:43:40;15.70;99.90
19037;DHT22;9651;49.138;8.900;2023-05-07T19:47:42;15.80;99.90
19037;DHT22;9651;49.138;8.900;2023-05-07T19:51:45;15.70;99.90
19037;DHT22;9651;49.138;8.900;2023-05-07T19:55:47;15.70;99.90
19037;DHT22;9651;49.138;8.900;2023-05-07T19:59:49;15.70;99.90
19037;DHT22;9651;49.138;8.900;2023-05-07T20:03:51;15.60;99.90
19037;DHT22;9651;49.138;8.900;2023-05-07T20:07:55;15.60;99.90
19037;DHT22;9651;49.138;8.900;2023-05-07T20:11:56;15.60;99.90
19037;DHT22;9651;49.138;8.900;2023-05-07T20:15:59;15.70;99.90
19037;DHT22;9651;49.138;8.900;2023-05-07T20:20:01;15.80;99.90
19037;DHT22;9651;49.138;8.900;2023-05-07T20:24:06;15.90;99.90
19037;DHT22;9651;49.138;8.900;2023-05-07T20:28:08;15.90;99.90
19037;DHT22;9651;49.138;8.900;2023-05-07T20:32:10;15.90;99.90
19037;DHT22;9651;49.138;8.900;2023-05-07T20:36:12;16.00;99.90
19037;DHT22;9651;49.138;8.900;2023-05-07T20:40:15;16.00;99.90
19037;DHT22;9651;49.138;8.900;2023-05-07T20:44:17;16.00;99.90
19037;DHT22;9651;49.138;8.900;2023-05-07T20:48:19;16.00;99.90
19037;DHT22;9651;49.138;8.900;2023-05-07T20:52:21;16.00;99.90
19037;DHT22;9651;49.138;8.900;2023-05-07T20:56:25;16.10;99.90
19037;DHT22;9651;49.138;8.900;2023-05-07T21:00:26;16.10;99.90
19037;DHT22;9651;49.138;8.900;2023-05-07T21:04:29;16.10;99.90
19037;DHT22;9651;49.138;8.900;2023-05-07T21:08:32;16.10;99.90
19037;DHT22;9651;49.138;8.900;2023-05-07T21:12:36;16.00;99.90
19037;DHT22;9651;49.138;8.900;2023-05-07T21:16:39;15.90;99.90
19037;DHT22;9651;49.138;8.900;2023-05-07T21:20:42;15.90;99.90
19037;DHT22;9651;49.138;8.900;2023-05-07T21:24:44;15.80;99.90
19037;DHT22;9651;49.138;8.900;2023-05-07T21:28:47;15.80;99.90
19037;DHT22;9651;49.138;8.900;2023-05-07T21:32:49;15.70;99.90
19037;DHT22;9651;49.138;8.900;2023-05-07T21:36:52;15.70;99.90
19037;DHT22;9651;49.138;8.900;2023-05-07T21:40:54;15.70;99.90
19037;DHT22;9651;49.138;8.900;2023-05-07T21:44:58;15.70;99.90
19037;DHT22;9651;49.138;8.900;2023-05-07T21:49:00;15.70;99.90
19037;DHT22;9651;49.138;8.900;2023-05-07T21:53:02;15.70;99.90
19037;DHT22;9651;49.138;8.900;2023-05-07T21:57:04;15.70;99.90
19037;DHT22;9651;49.138;8.900;2023-05-07T22:01:07;15.70;99.90
19037;DHT22;9651;49.138;8.900;2023-05-07T22:05:11;15.80;99.90
19037;DHT22;9651;49.138;8.900;2023-05-07T22:09:13;15.70;99.90
19037;DHT22;9651;49.138;8.900;2023-05-07T22:13:15;15.70;99.90
19037;DHT22;9651;49.138;8.900;2023-05-07T22:17:19;15.70;99.90
19037;DHT22;9651;49.138;8.900;2023-05-07T22:21:21;15.80;99.90
19037;DHT22;9651;49.138;8.900;2023-05-07T22:25:23;15.80;99.90
19037;DHT22;9651;49.138;8.900;2023-05-07T22:29:25;15.80;99.90
19037;DHT22;9651;49.138;8.900;2023-05-07T22:33:28;15.70;99.90
19037;DHT22;9651;49.138;8.900;2023-05-07T22:37:30;15.70;99.90
19037;DHT22;9651;49.138;8.900;2023-05-07T22:41:32;15.50;99.90
19037;DHT22;9651;49.138;8.900;2023-05-07T22:45:34;15.50;99.90
19037;DHT22;9651;49.138;8.900;2023-05-07T22:49:38;15.50;99.90
19037;DHT22;9651;49.138;8.900;2023-05-07T22:53:40;15.50;99.90
19037;DHT22;9651;49.138;8.900;2023-05-07T22:57:42;15.50;99.90
19037;DHT22;9651;49.138;8.900;2023-05-07T23:01:44;15.40;99.90
19037;DHT22;9651;49.138;8.900;2023-05-07T23:05:48;15.40;99.90
19037;DHT22;9651;49.138;8.900;2023-05-07T23:09:50;15.40;99.90
19037;DHT22;9651;49.138;8.900;2023-05-07T23:13:51;15.40;99.90
19037;DHT22;9651;49.138;8.900;2023-05-07T23:17:53;15.40;99.90
19037;DHT22;9651;49.138;8.900;2023-05-07T23:21:56;15.40;99.90
19037;DHT22;9651;49.138;8.900;2023-05-07T23:25:58;15.40;99.90
19037;DHT22;9651;49.138;8.900;2023-05-07T23:30:00;15.50;99.90
19037;DHT22;9651;49.138;8.900;2023-05-07T23:34:02;15.50;99.90
19037;DHT22;9651;49.138;8.900;2023-05-07T23:38:06;15.50;99.90
19037;DHT22;9651;49.138;8.900;2023-05-07T23:42:07;15.60;99.90
19037;DHT22;9651;49.138;8.900;2023-05-07T23:46:09;15.60;99.90
19037;DHT22;9651;49.138;8.900;2023-05-07T23:50:11;15.70;99.90
19037;DHT22;9651;49.138;8.900;2023-05-07T23:54:15;15.70;99.90
19037;DHT22;9651;49.138;8.900;2023-05-07T23:58:17;15.70;99.90
